sensor_id;sensor_type;location;lat;lon;timestamp;P1;durP1;ratioP1;P2;durP2;ratioP2
13321;SDS011;6730;46.248;6.930;2023-07-29T00:00:40;4.82;;;3.45;;
13321;SDS011;6730;46.248;6.930;2023-07-29T00:03:06;3.50;;;3.08;;
13321;SDS011;6730;46.248;6.930;2023-07-29T00:05:32;4.00;;;3.60;;
13321;SDS011;6730;46.248;6.930;2023-07-29T00:07:57;4.03;;;3.65;;
13321;SDS011;6730;46.248;6.930;2023-07-29T00:10:23;3.50;;;3.17;;
13321;SDS011;6730;46.248;6.930;2023-07-29T00:12:49;5.57;;;3.38;;
13321;SDS011;6730;46.248;6.930;2023-07-29T00:15:14;3.70;;;3.28;;
13321;SDS011;6730;46.248;6.930;2023-07-29T00:17:40;3.75;;;3.38;;
13321;SDS011;6730;46.248;6.930;2023-07-29T00:20:06;3.63;;;3.20;;
13321;SDS011;6730;46.248;6.930;2023-07-29T00:22:32;4.57;;;3.83;;
13321;SDS011;6730;46.248;6.930;2023-07-29T00:24:58;4.35;;;3.70;;
13321;SDS011;6730;46.248;6.930;2023-07-29T00:27:24;4.97;;;3.30;;
13321;SDS011;6730;46.248;6.930;2023-07-29T00:29:50;4.03;;;3.05;;
13321;SDS011;6730;46.248;6.930;2023-07-29T00:32:16;3.53;;;3.22;;
13321;SDS011;6730;46.248;6.930;2023-07-29T00:34:42;3.33;;;3.03;;
13321;SDS011;6730;46.248;6.930;2023-07-29T00:37:07;4.68;;;3.60;;
13321;SDS011;6730;46.248;6.930;2023-07-29T00:39:33;5.38;;;3.38;;
13321;SDS011;6730;46.248;6.930;2023-07-29T00:41:59;3.80;;;3.25;;
13321;SDS011;6730;46.248;6.930;2023-07-29T00:44:24;4.60;;;3.47;;
13321;SDS011;6730;46.248;6.930;2023-07-29T00:46:52;5.72;;;3.75;;
13321;SDS011;6730;46.248;6.930;2023-07-29T00:49:19;4.55;;;3.70;;
13321;SDS011;6730;46.248;6.930;2023-07-29T00:51:45;3.50;;;3.13;;
13321;SDS011;6730;46.248;6.930;2023-07-29T00:54:11;4.28;;;3.60;;
13321;SDS011;6730;46.248;6.930;2023-07-29T00:56:37;5.93;;;3.83;;
13321;SDS011;6730;46.248;6.930;2023-07-29T00:59:03;4.00;;;3.60;;
13321;SDS011;6730;46.248;6.930;2023-07-29T01:01:29;3.97;;;3.33;;
13321;SDS011;6730;46.248;6.930;2023-07-29T01:03:55;5.22;;;3.55;;
13321;SDS011;6730;46.248;6.930;2023-07-29T01:09:00;3.70;;;3.30;;
13321;SDS011;6730;46.248;6.930;2023-07-29T01:14:22;7.30;;;4.22;;
13321;SDS011;6730;46.248;6.930;2023-07-29T01:16:55;6.15;;;3.90;;
13321;SDS011;6730;46.248;6.930;2023-07-29T01:22:25;5.90;;;3.90;;
13321;SDS011;6730;46.248;6.930;2023-07-29T01:24:51;4.78;;;3.60;;
13321;SDS011;6730;46.248;6.930;2023-07-29T01:27:16;3.95;;;3.55;;
13321;SDS011;6730;46.248;6.930;2023-07-29T01:29:42;5.35;;;3.50;;
13321;SDS011;6730;46.248;6.930;2023-07-29T01:32:10;4.78;;;3.50;;
13321;SDS011;6730;46.248;6.930;2023-07-29T01:37:49;4.05;;;3.65;;
13321;SDS011;6730;46.248;6.930;2023-07-29T01:40:20;6.00;;;3.95;;
13321;SDS011;6730;46.248;6.930;2023-07-29T01:42:49;3.92;;;3.40;;
13321;SDS011;6730;46.248;6.930;2023-07-29T01:45:15;5.70;;;3.58;;
13321;SDS011;6730;46.248;6.930;2023-07-29T01:47:42;5.88;;;4.35;;
13321;SDS011;6730;46.248;6.930;2023-07-29T01:50:08;3.90;;;3.45;;
13321;SDS011;6730;46.248;6.930;2023-07-29T01:52:34;4.55;;;3.70;;
13321;SDS011;6730;46.248;6.930;2023-07-29T01:55:01;4.85;;;3.72;;
13321;SDS011;6730;46.248;6.930;2023-07-29T01:57:27;4.93;;;3.60;;
13321;SDS011;6730;46.248;6.930;2023-07-29T01:59:52;4.63;;;4.22;;
13321;SDS011;6730;46.248;6.930;2023-07-29T02:02:18;5.57;;;3.95;;
13321;SDS011;6730;46.248;6.930;2023-07-29T02:04:43;4.82;;;4.35;;
13321;SDS011;6730;46.248;6.930;2023-07-29T02:07:10;5.20;;;3.53;;
13321;SDS011;6730;46.248;6.930;2023-07-29T02:09:35;4.97;;;3.90;;
13321;SDS011;6730;46.248;6.930;2023-07-29T02:12:01;4.10;;;3.70;;
13321;SDS011;6730;46.248;6.930;2023-07-29T02:14:27;3.92;;;3.53;;
13321;SDS011;6730;46.248;6.930;2023-07-29T02:16:53;7.43;;;3.40;;
13321;SDS011;6730;46.248;6.930;2023-07-29T02:19:19;4.82;;;3.72;;
13321;SDS011;6730;46.248;6.930;2023-07-29T02:21:44;4.88;;;4.00;;
13321;SDS011;6730;46.248;6.930;2023-07-29T02:24:10;4.43;;;3.70;;
13321;SDS011;6730;46.248;6.930;2023-07-29T02:26:36;4.65;;;3.70;;
13321;SDS011;6730;46.248;6.930;2023-07-29T02:29:01;4.65;;;3.97;;
13321;SDS011;6730;46.248;6.930;2023-07-29T02:31:27;6.07;;;4.10;;
13321;SDS011;6730;46.248;6.930;2023-07-29T02:33:53;5.72;;;4.05;;
13321;SDS011;6730;46.248;6.930;2023-07-29T02:36:18;4.93;;;3.58;;
13321;SDS011;6730;46.248;6.930;2023-07-29T02:38:44;4.20;;;3.28;;
13321;SDS011;6730;46.248;6.930;2023-07-29T02:41:10;4.97;;;3.88;;
13321;SDS011;6730;46.248;6.930;2023-07-29T02:43:37;4.80;;;3.72;;
13321;SDS011;6730;46.248;6.930;2023-07-29T02:46:03;4.85;;;3.65;;
13321;SDS011;6730;46.248;6.930;2023-07-29T02:48:29;6.43;;;4.03;;
13321;SDS011;6730;46.248;6.930;2023-07-29T02:50:55;4.30;;;3.90;;
13321;SDS011;6730;46.248;6.930;2023-07-29T02:53:24;4.30;;;3.88;;
13321;SDS011;6730;46.248;6.930;2023-07-29T02:55:50;4.43;;;4.00;;
13321;SDS011;6730;46.248;6.930;2023-07-29T02:58:16;4.97;;;3.83;;
13321;SDS011;6730;46.248;6.930;2023-07-29T03:00:41;4.20;;;3.80;;
13321;SDS011;6730;46.248;6.930;2023-07-29T03:03:08;4.00;;;3.58;;
13321;SDS011;6730;46.248;6.930;2023-07-29T03:05:34;5.30;;;3.70;;
13321;SDS011;6730;46.248;6.930;2023-07-29T03:08:00;4.50;;;3.80;;
13321;SDS011;6730;46.248;6.930;2023-07-29T03:10:26;3.97;;;3.63;;
13321;SDS011;6730;46.248;6.930;2023-07-29T03:12:55;4.38;;;3.88;;
13321;SDS011;6730;46.248;6.930;2023-07-29T03:15:24;4.47;;;3.70;;
13321;SDS011;6730;46.248;6.930;2023-07-29T03:17:50;5.30;;;4.07;;
13321;SDS011;6730;46.248;6.930;2023-07-29T03:20:16;3.90;;;3.45;;
13321;SDS011;6730;46.248;6.930;2023-07-29T03:22:45;3.65;;;3.30;;
13321;SDS011;6730;46.248;6.930;2023-07-29T03:25:10;4.40;;;4.00;;
13321;SDS011;6730;46.248;6.930;2023-07-29T03:27:36;4.05;;;3.65;;
13321;SDS011;6730;46.248;6.930;2023-07-29T03:30:02;3.58;;;3.25;;
13321;SDS011;6730;46.248;6.930;2023-07-29T03:32:29;4.80;;;3.65;;
13321;SDS011;6730;46.248;6.930;2023-07-29T03:34:54;6.03;;;3.92;;
13321;SDS011;6730;46.248;6.930;2023-07-29T03:37:20;4.32;;;3.85;;
13321;SDS011;6730;46.248;6.930;2023-07-29T03:39:46;4.45;;;4.00;;
13321;SDS011;6730;46.248;6.930;2023-07-29T03:42:12;3.92;;;3.45;;
13321;SDS011;6730;46.248;6.930;2023-07-29T03:44:38;3.97;;;3.60;;
13321;SDS011;6730;46.248;6.930;2023-07-29T03:47:06;4.65;;;3.90;;
13321;SDS011;6730;46.248;6.930;2023-07-29T03:49:33;4.35;;;3.95;;
13321;SDS011;6730;46.248;6.930;2023-07-29T03:51:58;3.97;;;3.58;;
13321;SDS011;6730;46.248;6.930;2023-07-29T03:54:24;5.53;;;4.13;;
13321;SDS011;6730;46.248;6.930;2023-07-29T03:56:50;4.57;;;4.03;;
13321;SDS011;6730;46.248;6.930;2023-07-29T03:59:16;4.35;;;3.95;;
13321;SDS011;6730;46.248;6.930;2023-07-29T04:01:42;6.35;;;4.00;;
13321;SDS011;6730;46.248;6.930;2023-07-29T04:04:08;4.45;;;3.70;;
13321;SDS011;6730;46.248;6.930;2023-07-29T04:06:33;4.65;;;4.15;;
13321;SDS011;6730;46.248;6.930;2023-07-29T04:08:59;4.38;;;3.63;;
13321;SDS011;6730;46.248;6.930;2023-07-29T04:11:25;4.35;;;3.95;;
13321;SDS011;6730;46.248;6.930;2023-07-29T04:13:51;4.30;;;3.90;;
13321;SDS011;6730;46.248;6.930;2023-07-29T04:16:16;4.55;;;3.92;;
13321;SDS011;6730;46.248;6.930;2023-07-29T04:18:42;4.28;;;3.67;;
13321;SDS011;6730;46.248;6.930;2023-07-29T04:21:08;4.60;;;4.20;;
13321;SDS011;6730;46.248;6.930;2023-07-29T04:23:34;4.03;;;3.63;;
13321;SDS011;6730;46.248;6.930;2023-07-29T04:26:00;4.60;;;3.78;;
13321;SDS011;6730;46.248;6.930;2023-07-29T04:28:26;6.45;;;4.35;;
13321;SDS011;6730;46.248;6.930;2023-07-29T04:30:51;5.30;;;3.53;;
13321;SDS011;6730;46.248;6.930;2023-07-29T04:33:17;6.05;;;3.67;;
13321;SDS011;6730;46.248;6.930;2023-07-29T04:35:43;4.68;;;3.83;;
13321;SDS011;6730;46.248;6.930;2023-07-29T04:38:09;4.20;;;3.75;;
13321;SDS011;6730;46.248;6.930;2023-07-29T04:40:34;3.95;;;3.55;;
13321;SDS011;6730;46.248;6.930;2023-07-29T04:43:00;5.82;;;4.40;;
13321;SDS011;6730;46.248;6.930;2023-07-29T04:45:29;6.18;;;4.30;;
13321;SDS011;6730;46.248;6.930;2023-07-29T04:47:55;4.90;;;3.97;;
13321;SDS011;6730;46.248;6.930;2023-07-29T04:50:21;6.13;;;4.05;;
13321;SDS011;6730;46.248;6.930;2023-07-29T04:52:47;4.50;;;3.85;;
13321;SDS011;6730;46.248;6.930;2023-07-29T04:55:13;5.28;;;3.75;;
13321;SDS011;6730;46.248;6.930;2023-07-29T04:57:38;5.03;;;4.05;;
13321;SDS011;6730;46.248;6.930;2023-07-29T05:00:04;4.63;;;3.88;;
13321;SDS011;6730;46.248;6.930;2023-07-29T05:02:30;4.22;;;3.83;;
13321;SDS011;6730;46.248;6.930;2023-07-29T05:04:56;5.72;;;3.88;;
13321;SDS011;6730;46.248;6.930;2023-07-29T05:07:21;5.07;;;4.05;;
13321;SDS011;6730;46.248;6.930;2023-07-29T05:09:47;5.55;;;3.83;;
13321;SDS011;6730;46.248;6.930;2023-07-29T05:12:13;4.78;;;3.55;;
13321;SDS011;6730;46.248;6.930;2023-07-29T05:14:39;5.25;;;3.97;;
13321;SDS011;6730;46.248;6.930;2023-07-29T05:17:05;7.07;;;4.82;;
13321;SDS011;6730;46.248;6.930;2023-07-29T05:19:31;5.03;;;3.70;;
13321;SDS011;6730;46.248;6.930;2023-07-29T05:21:56;4.45;;;3.83;;
13321;SDS011;6730;46.248;6.930;2023-07-29T05:24:22;4.68;;;4.00;;
13321;SDS011;6730;46.248;6.930;2023-07-29T05:26:48;4.70;;;3.92;;
13321;SDS011;6730;46.248;6.930;2023-07-29T05:29:14;4.38;;;3.75;;
13321;SDS011;6730;46.248;6.930;2023-07-29T05:31:40;4.35;;;3.95;;
13321;SDS011;6730;46.248;6.930;2023-07-29T05:34:05;5.25;;;4.18;;
13321;SDS011;6730;46.248;6.930;2023-07-29T05:36:31;6.35;;;4.10;;
13321;SDS011;6730;46.248;6.930;2023-07-29T05:38:57;4.10;;;3.50;;
13321;SDS011;6730;46.248;6.930;2023-07-29T05:41:23;5.60;;;3.63;;
13321;SDS011;6730;46.248;6.930;2023-07-29T05:43:51;4.93;;;4.13;;
13321;SDS011;6730;46.248;6.930;2023-07-29T05:46:16;4.40;;;3.60;;
13321;SDS011;6730;46.248;6.930;2023-07-29T05:48:42;5.20;;;4.00;;
13321;SDS011;6730;46.248;6.930;2023-07-29T05:51:07;4.20;;;3.80;;
13321;SDS011;6730;46.248;6.930;2023-07-29T05:53:33;5.60;;;4.15;;
13321;SDS011;6730;46.248;6.930;2023-07-29T05:55:59;4.07;;;3.38;;
13321;SDS011;6730;46.248;6.930;2023-07-29T05:58:24;4.75;;;4.13;;
13321;SDS011;6730;46.248;6.930;2023-07-29T06:00:50;4.75;;;4.25;;
13321;SDS011;6730;46.248;6.930;2023-07-29T06:03:16;5.03;;;4.13;;
13321;SDS011;6730;46.248;6.930;2023-07-29T06:05:42;4.32;;;3.92;;
13321;SDS011;6730;46.248;6.930;2023-07-29T06:08:07;4.38;;;3.97;;
13321;SDS011;6730;46.248;6.930;2023-07-29T06:10:34;5.68;;;4.43;;
13321;SDS011;6730;46.248;6.930;2023-07-29T06:12:59;4.93;;;4.20;;
13321;SDS011;6730;46.248;6.930;2023-07-29T06:15:25;4.47;;;4.07;;
13321;SDS011;6730;46.248;6.930;2023-07-29T06:17:51;4.63;;;4.18;;
13321;SDS011;6730;46.248;6.930;2023-07-29T06:20:16;5.50;;;3.90;;
13321;SDS011;6730;46.248;6.930;2023-07-29T06:22:42;5.32;;;4.10;;
13321;SDS011;6730;46.248;6.930;2023-07-29T06:25:10;4.95;;;3.97;;
13321;SDS011;6730;46.248;6.930;2023-07-29T06:27:36;5.10;;;4.32;;
13321;SDS011;6730;46.248;6.930;2023-07-29T06:30:02;4.30;;;3.75;;
13321;SDS011;6730;46.248;6.930;2023-07-29T06:32:27;4.15;;;3.58;;
13321;SDS011;6730;46.248;6.930;2023-07-29T06:34:53;4.10;;;3.67;;
13321;SDS011;6730;46.248;6.930;2023-07-29T06:37:19;4.03;;;3.53;;
13321;SDS011;6730;46.248;6.930;2023-07-29T06:39:45;5.30;;;4.20;;
13321;SDS011;6730;46.248;6.930;2023-07-29T06:42:11;5.07;;;4.45;;
13321;SDS011;6730;46.248;6.930;2023-07-29T06:44:36;4.95;;;4.40;;
13321;SDS011;6730;46.248;6.930;2023-07-29T06:47:02;6.47;;;4.45;;
13321;SDS011;6730;46.248;6.930;2023-07-29T06:49:28;5.88;;;3.97;;
13321;SDS011;6730;46.248;6.930;2023-07-29T06:51:54;6.18;;;4.10;;
13321;SDS011;6730;46.248;6.930;2023-07-29T06:54:23;4.53;;;4.13;;
13321;SDS011;6730;46.248;6.930;2023-07-29T06:56:49;5.47;;;4.05;;
13321;SDS011;6730;46.248;6.930;2023-07-29T06:59:15;4.93;;;4.43;;
13321;SDS011;6730;46.248;6.930;2023-07-29T07:01:40;5.20;;;4.50;;
13321;SDS011;6730;46.248;6.930;2023-07-29T07:04:06;4.82;;;4.13;;
13321;SDS011;6730;46.248;6.930;2023-07-29T07:06:32;5.05;;;4.13;;
13321;SDS011;6730;46.248;6.930;2023-07-29T07:08:57;6.70;;;4.57;;
13321;SDS011;6730;46.248;6.930;2023-07-29T07:11:23;5.93;;;4.65;;
13321;SDS011;6730;46.248;6.930;2023-07-29T07:13:48;5.70;;;4.60;;
13321;SDS011;6730;46.248;6.930;2023-07-29T07:16:14;4.53;;;3.95;;
13321;SDS011;6730;46.248;6.930;2023-07-29T07:18:40;6.10;;;4.22;;
13321;SDS011;6730;46.248;6.930;2023-07-29T07:21:06;5.47;;;4.53;;
13321;SDS011;6730;46.248;6.930;2023-07-29T07:23:31;6.45;;;4.70;;
13321;SDS011;6730;46.248;6.930;2023-07-29T07:25:57;7.55;;;4.72;;
13321;SDS011;6730;46.248;6.930;2023-07-29T07:28:23;5.20;;;4.57;;
13321;SDS011;6730;46.248;6.930;2023-07-29T07:30:48;7.05;;;4.95;;
13321;SDS011;6730;46.248;6.930;2023-07-29T07:33:14;5.05;;;4.45;;
13321;SDS011;6730;46.248;6.930;2023-07-29T07:35:41;5.18;;;4.68;;
13321;SDS011;6730;46.248;6.930;2023-07-29T07:38:07;5.13;;;4.30;;
13321;SDS011;6730;46.248;6.930;2023-07-29T07:40:34;6.40;;;4.32;;
13321;SDS011;6730;46.248;6.930;2023-07-29T07:43:00;6.68;;;4.30;;
13321;SDS011;6730;46.248;6.930;2023-07-29T07:45:26;5.10;;;4.60;;
13321;SDS011;6730;46.248;6.930;2023-07-29T07:47:52;4.30;;;3.90;;
13321;SDS011;6730;46.248;6.930;2023-07-29T07:50:21;4.95;;;4.30;;
13321;SDS011;6730;46.248;6.930;2023-07-29T07:52:47;5.28;;;4.50;;
13321;SDS011;6730;46.248;6.930;2023-07-29T07:55:12;6.63;;;4.50;;
13321;SDS011;6730;46.248;6.930;2023-07-29T07:57:38;5.72;;;4.57;;
13321;SDS011;6730;46.248;6.930;2023-07-29T08:00:04;7.05;;;4.35;;
13321;SDS011;6730;46.248;6.930;2023-07-29T08:02:30;4.97;;;4.10;;
13321;SDS011;6730;46.248;6.930;2023-07-29T08:04:55;4.45;;;4.05;;
13321;SDS011;6730;46.248;6.930;2023-07-29T08:07:21;5.18;;;4.40;;
13321;SDS011;6730;46.248;6.930;2023-07-29T08:09:47;5.43;;;4.53;;
13321;SDS011;6730;46.248;6.930;2023-07-29T08:12:12;6.70;;;4.60;;
13321;SDS011;6730;46.248;6.930;2023-07-29T08:14:38;6.85;;;4.60;;
13321;SDS011;6730;46.248;6.930;2023-07-29T08:17:04;4.60;;;4.20;;
13321;SDS011;6730;46.248;6.930;2023-07-29T08:19:29;5.18;;;4.10;;
13321;SDS011;6730;46.248;6.930;2023-07-29T08:21:55;4.20;;;3.80;;
13321;SDS011;6730;46.248;6.930;2023-07-29T08:24:21;6.13;;;4.20;;
13321;SDS011;6730;46.248;6.930;2023-07-29T08:26:46;5.80;;;4.50;;
13321;SDS011;6730;46.248;6.930;2023-07-29T08:29:12;4.75;;;4.30;;
13321;SDS011;6730;46.248;6.930;2023-07-29T08:31:38;4.60;;;4.20;;
13321;SDS011;6730;46.248;6.930;2023-07-29T08:34:04;4.45;;;4.05;;
13321;SDS011;6730;46.248;6.930;2023-07-29T08:36:29;5.43;;;4.63;;
13321;SDS011;6730;46.248;6.930;2023-07-29T08:38:55;4.30;;;3.90;;
13321;SDS011;6730;46.248;6.930;2023-07-29T08:41:29;5.85;;;4.53;;
13321;SDS011;6730;46.248;6.930;2023-07-29T08:46:32;5.88;;;4.10;;
13321;SDS011;6730;46.248;6.930;2023-07-29T08:48:58;5.22;;;4.43;;
13321;SDS011;6730;46.248;6.930;2023-07-29T08:51:24;4.97;;;4.47;;
13321;SDS011;6730;46.248;6.930;2023-07-29T08:53:52;5.90;;;4.07;;
13321;SDS011;6730;46.248;6.930;2023-07-29T08:56:18;8.10;;;5.03;;
13321;SDS011;6730;46.248;6.930;2023-07-29T08:58:43;7.05;;;4.80;;
13321;SDS011;6730;46.248;6.930;2023-07-29T09:01:10;5.47;;;4.97;;
13321;SDS011;6730;46.248;6.930;2023-07-29T09:03:36;10.20;;;5.50;;
13321;SDS011;6730;46.248;6.930;2023-07-29T09:06:02;5.15;;;4.63;;
13321;SDS011;6730;46.248;6.930;2023-07-29T09:08:28;5.97;;;4.90;;
13321;SDS011;6730;46.248;6.930;2023-07-29T09:10:54;5.72;;;5.22;;
13321;SDS011;6730;46.248;6.930;2023-07-29T09:13:20;7.15;;;5.00;;
13321;SDS011;6730;46.248;6.930;2023-07-29T09:15:46;7.40;;;4.85;;
13321;SDS011;6730;46.248;6.930;2023-07-29T09:18:16;5.40;;;4.55;;
13321;SDS011;6730;46.248;6.930;2023-07-29T09:20:43;5.15;;;4.53;;
13321;SDS011;6730;46.248;6.930;2023-07-29T09:23:12;6.63;;;4.38;;
13321;SDS011;6730;46.248;6.930;2023-07-29T09:25:38;5.22;;;4.72;;
13321;SDS011;6730;46.248;6.930;2023-07-29T09:28:08;5.60;;;4.30;;
13321;SDS011;6730;46.248;6.930;2023-07-29T09:30:36;7.80;;;5.18;;
13321;SDS011;6730;46.248;6.930;2023-07-29T09:33:05;9.40;;;8.32;;
13321;SDS011;6730;46.248;6.930;2023-07-29T09:35:32;5.80;;;5.15;;
13321;SDS011;6730;46.248;6.930;2023-07-29T09:37:59;7.90;;;5.10;;
13321;SDS011;6730;46.248;6.930;2023-07-29T09:40:25;7.13;;;5.38;;
13321;SDS011;6730;46.248;6.930;2023-07-29T09:42:52;5.90;;;4.93;;
13321;SDS011;6730;46.248;6.930;2023-07-29T09:45:24;7.78;;;4.72;;
13321;SDS011;6730;46.248;6.930;2023-07-29T09:47:51;6.88;;;4.22;;
13321;SDS011;6730;46.248;6.930;2023-07-29T09:50:25;5.93;;;4.30;;
13321;SDS011;6730;46.248;6.930;2023-07-29T09:52:51;4.70;;;4.00;;
13321;SDS011;6730;46.248;6.930;2023-07-29T09:55:19;7.35;;;4.75;;
13321;SDS011;6730;46.248;6.930;2023-07-29T09:57:46;6.80;;;4.05;;
13321;SDS011;6730;46.248;6.930;2023-07-29T10:00:12;4.55;;;3.95;;
13321;SDS011;6730;46.248;6.930;2023-07-29T10:02:41;4.35;;;3.95;;
13321;SDS011;6730;46.248;6.930;2023-07-29T10:05:08;5.35;;;4.55;;
13321;SDS011;6730;46.248;6.930;2023-07-29T10:07:38;4.25;;;3.80;;
13321;SDS011;6730;46.248;6.930;2023-07-29T10:10:05;5.10;;;4.60;;
13321;SDS011;6730;46.248;6.930;2023-07-29T10:12:32;6.20;;;4.80;;
13321;SDS011;6730;46.248;6.930;2023-07-29T10:14:59;5.05;;;4.20;;
13321;SDS011;6730;46.248;6.930;2023-07-29T10:17:27;5.40;;;4.20;;
13321;SDS011;6730;46.248;6.930;2023-07-29T10:19:55;4.82;;;4.40;;
13321;SDS011;6730;46.248;6.930;2023-07-29T10:22:22;4.60;;;4.10;;
13321;SDS011;6730;46.248;6.930;2023-07-29T10:24:53;4.45;;;4.05;;
13321;SDS011;6730;46.248;6.930;2023-07-29T10:27:24;4.40;;;4.00;;
13321;SDS011;6730;46.248;6.930;2023-07-29T10:29:52;4.50;;;4.10;;
13321;SDS011;6730;46.248;6.930;2023-07-29T10:32:22;5.40;;;4.07;;
13321;SDS011;6730;46.248;6.930;2023-07-29T10:34:50;6.03;;;4.00;;
13321;SDS011;6730;46.248;6.930;2023-07-29T10:37:16;4.78;;;4.28;;
13321;SDS011;6730;46.248;6.930;2023-07-29T10:39:51;4.75;;;4.07;;
13321;SDS011;6730;46.248;6.930;2023-07-29T10:42:19;5.07;;;3.88;;
13321;SDS011;6730;46.248;6.930;2023-07-29T10:44:48;4.90;;;4.40;;
13321;SDS011;6730;46.248;6.930;2023-07-29T10:47:16;5.47;;;3.65;;
13321;SDS011;6730;46.248;6.930;2023-07-29T10:49:43;3.97;;;3.58;;
13321;SDS011;6730;46.248;6.930;2023-07-29T10:52:13;3.67;;;3.38;;
13321;SDS011;6730;46.248;6.930;2023-07-29T10:54:53;4.13;;;3.72;;
13321;SDS011;6730;46.248;6.930;2023-07-29T10:57:35;4.45;;;4.05;;
13321;SDS011;6730;46.248;6.930;2023-07-29T11:00:03;4.32;;;3.90;;
13321;SDS011;6730;46.248;6.930;2023-07-29T11:02:30;4.32;;;3.55;;
13321;SDS011;6730;46.248;6.930;2023-07-29T11:05:04;5.28;;;3.65;;
13321;SDS011;6730;46.248;6.930;2023-07-29T11:07:44;4.20;;;3.80;;
13321;SDS011;6730;46.248;6.930;2023-07-29T11:10:11;4.25;;;3.70;;
13321;SDS011;6730;46.248;6.930;2023-07-29T11:12:39;4.22;;;3.83;;
13321;SDS011;6730;46.248;6.930;2023-07-29T11:15:17;9.38;;;3.92;;
13321;SDS011;6730;46.248;6.930;2023-07-29T11:17:54;5.13;;;4.60;;
13321;SDS011;6730;46.248;6.930;2023-07-29T11:20:22;5.32;;;4.30;;
13321;SDS011;6730;46.248;6.930;2023-07-29T11:22:49;10.50;;;9.43;;
13321;SDS011;6730;46.248;6.930;2023-07-29T11:25:16;6.55;;;5.57;;
13321;SDS011;6730;46.248;6.930;2023-07-29T11:27:43;6.95;;;4.97;;
13321;SDS011;6730;46.248;6.930;2023-07-29T11:30:10;7.35;;;5.43;;
13321;SDS011;6730;46.248;6.930;2023-07-29T11:32:38;5.13;;;4.60;;
13321;SDS011;6730;46.248;6.930;2023-07-29T11:35:09;7.43;;;5.00;;
13321;SDS011;6730;46.248;6.930;2023-07-29T11:37:45;6.35;;;4.95;;
13321;SDS011;6730;46.248;6.930;2023-07-29T11:40:18;4.85;;;4.43;;
13321;SDS011;6730;46.248;6.930;2023-07-29T11:42:48;6.47;;;4.28;;
13321;SDS011;6730;46.248;6.930;2023-07-29T11:45:16;5.18;;;4.45;;
13321;SDS011;6730;46.248;6.930;2023-07-29T11:47:42;4.70;;;3.90;;
13321;SDS011;6730;46.248;6.930;2023-07-29T11:50:09;4.93;;;4.40;;
13321;SDS011;6730;46.248;6.930;2023-07-29T11:52:36;4.55;;;4.10;;
13321;SDS011;6730;46.248;6.930;2023-07-29T11:55:03;4.82;;;4.20;;
13321;SDS011;6730;46.248;6.930;2023-07-29T11:57:30;4.13;;;3.72;;
13321;SDS011;6730;46.248;6.930;2023-07-29T11:59:58;4.63;;;4.20;;
13321;SDS011;6730;46.248;6.930;2023-07-29T12:02:24;4.85;;;4.15;;
13321;SDS011;6730;46.248;6.930;2023-07-29T12:04:50;5.22;;;3.72;;
13321;SDS011;6730;46.248;6.930;2023-07-29T12:07:17;4.22;;;3.83;;
13321;SDS011;6730;46.248;6.930;2023-07-29T12:09:44;6.78;;;4.10;;
13321;SDS011;6730;46.248;6.930;2023-07-29T12:12:11;4.80;;;4.13;;
13321;SDS011;6730;46.248;6.930;2023-07-29T12:14:36;7.40;;;4.55;;
13321;SDS011;6730;46.248;6.930;2023-07-29T12:17:03;15.75;;;5.15;;
13321;SDS011;6730;46.248;6.930;2023-07-29T12:19:33;8.52;;;4.45;;
13321;SDS011;6730;46.248;6.930;2023-07-29T12:22:01;12.93;;;4.43;;
13321;SDS011;6730;46.248;6.930;2023-07-29T12:24:29;6.70;;;4.07;;
13321;SDS011;6730;46.248;6.930;2023-07-29T12:26:55;5.80;;;4.32;;
13321;SDS011;6730;46.248;6.930;2023-07-29T12:29:21;5.50;;;3.88;;
13321;SDS011;6730;46.248;6.930;2023-07-29T12:31:47;9.18;;;4.50;;
13321;SDS011;6730;46.248;6.930;2023-07-29T12:34:20;7.10;;;4.18;;
13321;SDS011;6730;46.248;6.930;2023-07-29T12:36:50;4.72;;;4.15;;
13321;SDS011;6730;46.248;6.930;2023-07-29T12:39:20;4.22;;;3.67;;
13321;SDS011;6730;46.248;6.930;2023-07-29T12:41:53;5.00;;;3.92;;
13321;SDS011;6730;46.248;6.930;2023-07-29T12:44:21;4.47;;;4.07;;
13321;SDS011;6730;46.248;6.930;2023-07-29T12:46:48;3.88;;;3.58;;
13321;SDS011;6730;46.248;6.930;2023-07-29T12:49:14;4.03;;;3.63;;
13321;SDS011;6730;46.248;6.930;2023-07-29T12:51:40;4.32;;;3.38;;
13321;SDS011;6730;46.248;6.930;2023-07-29T12:54:05;3.70;;;3.40;;
13321;SDS011;6730;46.248;6.930;2023-07-29T12:56:32;4.25;;;3.15;;
13321;SDS011;6730;46.248;6.930;2023-07-29T12:58:59;3.30;;;3.00;;
13321;SDS011;6730;46.248;6.930;2023-07-29T13:01:25;3.58;;;3.28;;
13321;SDS011;6730;46.248;6.930;2023-07-29T13:03:51;3.28;;;2.92;;
13321;SDS011;6730;46.248;6.930;2023-07-29T13:06:17;3.65;;;3.30;;
13321;SDS011;6730;46.248;6.930;2023-07-29T13:08:43;3.55;;;3.20;;
13321;SDS011;6730;46.248;6.930;2023-07-29T13:11:10;3.28;;;2.97;;
13321;SDS011;6730;46.248;6.930;2023-07-29T13:13:36;3.13;;;2.83;;
13321;SDS011;6730;46.248;6.930;2023-07-29T13:16:01;4.45;;;2.90;;
13321;SDS011;6730;46.248;6.930;2023-07-29T13:18:27;3.10;;;2.80;;
13321;SDS011;6730;46.248;6.930;2023-07-29T13:20:53;4.20;;;2.80;;
13321;SDS011;6730;46.248;6.930;2023-07-29T13:23:19;3.25;;;2.95;;
13321;SDS011;6730;46.248;6.930;2023-07-29T13:25:45;3.58;;;3.22;;
13321;SDS011;6730;46.248;6.930;2023-07-29T13:28:11;4.60;;;3.05;;
13321;SDS011;6730;46.248;6.930;2023-07-29T13:30:40;3.90;;;3.58;;
13321;SDS011;6730;46.248;6.930;2023-07-29T13:33:06;3.65;;;3.35;;
13321;SDS011;6730;46.248;6.930;2023-07-29T13:35:32;3.83;;;3.30;;
13321;SDS011;6730;46.248;6.930;2023-07-29T13:37:57;4.18;;;3.78;;
13321;SDS011;6730;46.248;6.930;2023-07-29T13:40:23;3.78;;;3.38;;
13321;SDS011;6730;46.248;6.930;2023-07-29T13:42:49;5.35;;;3.33;;
13321;SDS011;6730;46.248;6.930;2023-07-29T13:45:14;3.70;;;3.25;;
13321;SDS011;6730;46.248;6.930;2023-07-29T13:47:40;3.63;;;3.33;;
13321;SDS011;6730;46.248;6.930;2023-07-29T13:50:06;3.97;;;3.47;;
13321;SDS011;6730;46.248;6.930;2023-07-29T13:52:35;4.25;;;3.60;;
13321;SDS011;6730;46.248;6.930;2023-07-29T13:55:02;4.38;;;3.63;;
13321;SDS011;6730;46.248;6.930;2023-07-29T13:57:28;4.40;;;3.55;;
13321;SDS011;6730;46.248;6.930;2023-07-29T13:59:54;4.50;;;3.53;;
13321;SDS011;6730;46.248;6.930;2023-07-29T14:02:20;4.22;;;3.55;;
13321;SDS011;6730;46.248;6.930;2023-07-29T14:04:45;4.30;;;3.90;;
13321;SDS011;6730;46.248;6.930;2023-07-29T14:07:11;4.05;;;3.65;;
13321;SDS011;6730;46.248;6.930;2023-07-29T14:09:37;5.03;;;4.28;;
13321;SDS011;6730;46.248;6.930;2023-07-29T14:12:03;4.50;;;4.10;;
13321;SDS011;6730;46.248;6.930;2023-07-29T14:14:29;4.68;;;4.25;;
13321;SDS011;6730;46.248;6.930;2023-07-29T14:16:55;5.82;;;4.10;;
13321;SDS011;6730;46.248;6.930;2023-07-29T14:19:21;4.50;;;4.00;;
13321;SDS011;6730;46.248;6.930;2023-07-29T14:21:47;5.97;;;4.70;;
13321;SDS011;6730;46.248;6.930;2023-07-29T14:24:13;6.13;;;4.43;;
13321;SDS011;6730;46.248;6.930;2023-07-29T14:26:39;5.20;;;4.45;;
13321;SDS011;6730;46.248;6.930;2023-07-29T14:29:05;4.70;;;4.30;;
13321;SDS011;6730;46.248;6.930;2023-07-29T14:31:31;5.03;;;4.13;;
13321;SDS011;6730;46.248;6.930;2023-07-29T14:33:56;5.07;;;3.70;;
13321;SDS011;6730;46.248;6.930;2023-07-29T14:36:23;5.78;;;4.40;;
13321;SDS011;6730;46.248;6.930;2023-07-29T14:38:49;5.47;;;4.30;;
13321;SDS011;6730;46.248;6.930;2023-07-29T14:41:14;6.35;;;4.03;;
13321;SDS011;6730;46.248;6.930;2023-07-29T14:43:40;6.53;;;5.07;;
13321;SDS011;6730;46.248;6.930;2023-07-29T14:46:06;4.60;;;4.00;;
13321;SDS011;6730;46.248;6.930;2023-07-29T14:48:31;4.53;;;3.63;;
13321;SDS011;6730;46.248;6.930;2023-07-29T14:50:57;4.97;;;4.38;;
13321;SDS011;6730;46.248;6.930;2023-07-29T14:53:23;4.90;;;3.92;;
13321;SDS011;6730;46.248;6.930;2023-07-29T14:55:49;4.43;;;4.00;;
13321;SDS011;6730;46.248;6.930;2023-07-29T14:58:14;4.50;;;3.75;;
13321;SDS011;6730;46.248;6.930;2023-07-29T15:00:40;4.00;;;3.60;;
13321;SDS011;6730;46.248;6.930;2023-07-29T15:03:06;4.32;;;3.92;;
13321;SDS011;6730;46.248;6.930;2023-07-29T15:05:32;4.40;;;3.58;;
13321;SDS011;6730;46.248;6.930;2023-07-29T15:07:58;4.80;;;3.60;;
13321;SDS011;6730;46.248;6.930;2023-07-29T15:10:24;3.72;;;2.95;;